New Orleans, Louisiana
Traffic Map
Current Weather Conditions
New Orleans, Louisiana
Clear
Clear
84°
Feels Like: 86°
Wind Chill: 84° Ceiling: Unl
Heat Index: 86° Visibility: 10mi
Dew Point: 66° Wind: 3mph
Humidity: 55% Direction: 170° (S)
Pressure: 29.96in Gusts: 0mph
Raw Report DataKVSH 020015Z AUTO 17003KT 10SM CLR 29/19 A2996 RMK AO1
Traffic Incident Summary
Active as of:
Severity:
Category:
InformationThere was an issue retrieving the traffic information for this location. Please try a different location or try again shortly.
Advertisements
Track Severe Weather on mobile